Terminal Aerodrome Forecast
Issued by NWS Wilmington, OH

Current Version | Previous Version | Graphics & Text | Print | Product List | Glossary On
Versions: 1 2 3 4 5 6 7 8 9 10 11 12 13 14 15 16 17 18 19 20 21
790
FTUS41 KILN 091942 AAA
TAFDAY
TAF AMD
KDAY 091942Z 0920/1018 26012KT P6SM -SHSN OVC022
     FM092300 27008KT P6SM SCT022 OVC040
     FM100600 27006KT P6SM OVC025
     FM101400 25008KT P6SM BKN070=

USA.gov is the U.S. government's official web portal to all federal, state and local government web resources and services.